Time;durP1;ratioP1;P1;durP2;ratioP2;P2;SDS_P1;SDS_P2;PMS_P1;PMS_P2;Temp;Humidity;BMP_temperature;BMP_pressure;BME280_temperature;BME280_humidity;BME280_pressure;Samples;Min_cycle;Max_cycle;Signal;HPM_P1;HPM_P2
2022/05/27 00:01:21;;;;;;;0.60;0.30;;;15.80;99.90;;;;;;6237503;23;20048;-70
2022/05/27 00:03:48;;;;;;;1.30;0.43;;;15.90;99.90;;;;;;6237713;23;20015;-69
2022/05/27 00:06:14;;;;;;;0.73;0.60;;;15.90;99.90;;;;;;6234394;23;20055;-70
2022/05/27 00:08:40;;;;;;;0.50;0.50;;;15.90;99.90;;;;;;6236626;23;20584;-70
2022/05/27 00:11:06;;;;;;;0.40;0.40;;;15.60;99.90;;;;;;6234708;23;20016;-70
2022/05/27 00:13:33;;;;;;;2.40;0.60;;;15.50;99.90;;;;;;6236838;23;20035;-70
2022/05/27 00:15:58;;;;;;;5.15;2.03;;;15.60;99.90;;;;;;6234460;23;20015;-70
2022/05/27 00:18:25;;;;;;;1.92;0.60;;;15.60;99.90;;;;;;6234490;23;20008;-70
2022/05/27 00:20:50;;;;;;;4.10;0.50;;;15.50;99.90;;;;;;6234385;23;20008;-70
2022/05/27 00:23:17;;;;;;;6.78;0.80;;;15.50;99.90;;;;;;6234671;23;20071;-70
2022/05/27 00:25:43;;;;;;;2.28;0.70;;;15.40;99.90;;;;;;6236608;23;20055;-70
2022/05/27 00:28:09;;;;;;;4.47;0.60;;;15.20;99.90;;;;;;6233622;23;20008;-70
2022/05/27 00:30:35;;;;;;;1.50;0.50;;;15.20;99.90;;;;;;6234330;23;20011;-70
2022/05/27 00:33:01;;;;;;;2.72;0.80;;;15.20;99.90;;;;;;6233941;23;20004;-69
2022/05/27 00:35:27;;;;;;;2.08;0.60;;;15.20;99.90;;;;;;6207529;23;20008;-70
2022/05/27 00:37:53;;;;;;;1.38;0.50;;;15.20;99.90;;;;;;6233534;23;20009;-69
2022/05/27 00:40:20;;;;;;;2.35;0.73;;;15.30;99.90;;;;;;6235170;23;20015;-70
2022/05/27 00:42:46;;;;;;;0.80;0.80;;;15.40;99.90;;;;;;6235891;23;20015;-69
2022/05/27 00:45:24;;;;;;;1.52;0.68;;;15.40;99.90;;;;;;6235318;23;20012;-69
2022/05/27 00:47:56;;;;;;;1.25;0.85;;;15.40;99.90;;;;;;6236220;23;20080;-69
2022/05/27 00:50:25;;;;;;;0.75;0.60;;;15.30;99.90;;;;;;6236242;23;20004;-69
2022/05/27 00:52:51;;;;;;;0.80;0.77;;;15.20;99.90;;;;;;6237165;23;20020;-69
2022/05/27 00:55:21;;;;;;;3.35;0.60;;;15.20;99.90;;;;;;6236223;23;20381;-70
2022/05/27 00:57:48;;;;;;;0.52;0.52;;;15.00;99.90;;;;;;6234391;23;20000;-69
2022/05/27 01:00:18;;;;;;;0.60;0.55;;;15.00;99.90;;;;;;6234732;23;20008;-69
2022/05/27 01:02:44;;;;;;;8.80;0.57;;;15.00;99.90;;;;;;6235263;23;20023;-69
2022/05/27 01:05:15;;;;;;;0.55;0.30;;;15.00;99.90;;;;;;6233770;23;20338;-69
2022/05/27 01:07:40;;;;;;;6.63;0.63;;;15.00;99.90;;;;;;6234310;23;20065;-69
2022/05/27 01:10:11;;;;;;;1.52;0.50;;;15.10;99.90;;;;;;6236374;23;20082;-69
2022/05/27 01:13:10;;;;;;;0.60;0.60;;;15.10;99.90;;;;;;6236393;23;20026;-69
2022/05/27 01:16:00;;;;;;;1.00;0.60;;;15.10;99.90;;;;;;6236742;23;20004;-69
2022/05/27 01:20:18;;;;;;;2.70;0.57;;;15.10;99.90;;;;;;6234496;23;20081;-69
2022/05/27 01:21:19;;;;;;;1.45;0.80;;;15.00;99.90;;;;;;6233744;23;20016;-69
2022/05/27 01:24:02;;;;;;;0.55;0.50;;;14.90;99.90;;;;;;6228850;23;20000;-69
2022/05/27 01:26:34;;;;;;;1.65;0.50;;;14.80;99.90;;;;;;6232773;23;20050;-70
2022/05/27 01:29:28;;;;;;;0.50;0.50;;;14.90;99.90;;;;;;6234099;23;19996;-69
2022/05/27 01:32:02;;;;;;;0.68;0.40;;;15.00;99.90;;;;;;6234352;23;20015;-69
2022/05/27 01:35:03;;;;;;;5.57;0.90;;;15.10;99.90;;;;;;6233842;23;20004;-70
2022/05/27 01:37:47;;;;;;;1.42;0.50;;;15.10;99.90;;;;;;6235969;23;20443;-69
2022/05/27 01:40:48;;;;;;;1.83;0.65;;;15.00;99.90;;;;;;6235007;23;20005;-69
2022/05/27 01:43:18;;;;;;;0.93;0.40;;;14.80;99.90;;;;;;6236604;23;20224;-69
2022/05/27 01:46:16;;;;;;;0.88;0.52;;;14.60;99.90;;;;;;6235017;23;20019;-69
2022/05/27 01:49:03;;;;;;;1.50;0.70;;;14.60;99.90;;;;;;6236703;23;20079;-69
2022/05/27 01:51:44;;;;;;;0.50;0.40;;;14.70;99.90;;;;;;6234380;23;20015;-70
2022/05/27 01:55:11;;;;;;;2.28;0.63;;;14.70;99.90;;;;;;6234938;23;20004;-69
2022/05/27 01:57:43;;;;;;;0.55;0.30;;;14.70;99.90;;;;;;6083261;23;20037;-69
2022/05/27 02:00:11;;;;;;;1.63;0.30;;;14.70;99.90;;;;;;6081472;23;20528;-70
2022/05/27 02:02:43;;;;;;;3.03;0.40;;;14.80;99.90;;;;;;6160726;23;20011;-69
2022/05/27 02:05:34;;;;;;;1.17;0.50;;;14.80;99.90;;;;;;6233269;23;20035;-69
2022/05/27 02:08:09;;;;;;;0.38;0.30;;;14.80;99.90;;;;;;6236064;23;20079;-69
2022/05/27 02:10:49;;;;;;;3.38;0.57;;;14.80;99.90;;;;;;6235923;23;20319;-69
2022/05/27 02:13:25;;;;;;;1.40;0.43;;;14.90;99.90;;;;;;6236994;23;20001;-69
2022/05/27 02:15:52;;;;;;;0.68;0.50;;;14.90;99.90;;;;;;6236414;23;20008;-69
2022/05/27 02:18:21;;;;;;;1.30;0.52;;;14.90;99.90;;;;;;6236730;23;20004;-69
2022/05/27 02:20:59;;;;;;;2.78;1.05;;;14.80;99.90;;;;;;6234967;23;20008;-69
2022/05/27 02:23:41;;;;;;;1.20;0.35;;;14.80;99.90;;;;;;6238245;23;20080;-69
2022/05/27 02:26:11;;;;;;;0.63;0.30;;;14.90;99.90;;;;;;6236632;23;20427;-70
2022/05/27 02:28:41;;;;;;;2.50;0.38;;;14.90;99.90;;;;;;6236992;23;20003;-70
2022/05/27 02:31:19;;;;;;;2.95;0.30;;;14.90;99.90;;;;;;6235859;23;20030;-70
2022/05/27 02:36:40;;;;;;;1.15;0.40;;;14.90;99.90;;;;;;6236172;23;20077;-69
2022/05/27 02:39:07;;;;;;;1.33;0.60;;;14.90;99.90;;;;;;6238565;23;20000;-70
2022/05/27 02:41:50;;;;;;;1.17;0.50;;;14.90;99.90;;;;;;6238781;23;20015;-70
2022/05/27 02:44:19;;;;;;;0.32;0.32;;;14.90;99.90;;;;;;6237716;23;20043;-70
2022/05/27 02:47:05;;;;;;;2.22;0.38;;;14.80;99.90;;;;;;6238212;23;20026;-69
2022/05/27 02:50:12;;;;;;;4.43;0.60;;;14.70;99.90;;;;;;6237336;23;20002;-69
2022/05/27 02:53:19;;;;;;;2.35;0.40;;;14.70;99.90;;;;;;6238733;23;20001;-70
2022/05/27 02:55:58;;;;;;;1.17;0.43;;;14.70;99.90;;;;;;6180377;23;20012;-69
2022/05/27 02:58:24;;;;;;;4.35;0.40;;;14.70;99.90;;;;;;6237914;23;20004;-69
2022/05/27 03:00:50;;;;;;;2.90;0.63;;;14.60;99.90;;;;;;6235535;23;20011;-69
2022/05/27 03:03:15;;;;;;;0.50;0.50;;;14.60;99.90;;;;;;6237477;23;20020;-67
2022/05/27 03:05:50;;;;;;;2.70;0.40;;;14.60;99.90;;;;;;6233644;23;20062;-69
2022/05/27 03:08:27;;;;;;;0.60;0.47;;;14.60;99.90;;;;;;6235811;23;20074;-69
2022/05/27 03:11:07;;;;;;;4.57;0.50;;;14.60;99.90;;;;;;6234955;23;20000;-69
2022/05/27 03:13:50;;;;;;;1.40;0.35;;;14.60;99.90;;;;;;6234974;23;20028;-69
2022/05/27 03:16:23;;;;;;;0.52;0.40;;;14.60;99.90;;;;;;6232974;23;20004;-70
2022/05/27 03:19:47;;;;;;;1.52;0.68;;;14.70;99.90;;;;;;6234740;23;20162;-70
2022/05/27 03:22:41;;;;;;;2.33;0.30;;;14.80;99.90;;;;;;6107220;23;20084;-69
2022/05/27 03:25:18;;;;;;;8.18;0.65;;;14.70;99.90;;;;;;6111926;23;20005;-69
2022/05/27 03:28:02;;;;;;;3.78;0.95;;;14.70;99.90;;;;;;6199107;23;20031;-70
2022/05/27 03:30:46;;;;;;;2.83;0.47;;;14.70;99.90;;;;;;6233722;23;20031;-69
2022/05/27 03:33:34;;;;;;;1.50;0.30;;;14.80;99.90;;;;;;6237159;23;20046;-69
2022/05/27 03:36:14;;;;;;;0.75;0.40;;;14.80;99.90;;;;;;6236674;23;20329;-69
2022/05/27 03:38:49;;;;;;;1.20;0.65;;;14.90;99.90;;;;;;6238613;23;20008;-69
2022/05/27 03:41:18;;;;;;;0.30;0.20;;;14.90;99.90;;;;;;6236908;23;20574;-68
2022/05/27 03:43:45;;;;;;;0.47;0.47;;;15.00;99.90;;;;;;6238838;23;20000;-69
2022/05/27 03:46:11;;;;;;;2.97;0.47;;;15.00;99.90;;;;;;6237555;23;20030;-69
2022/05/27 03:48:38;;;;;;;0.75;0.30;;;15.10;99.90;;;;;;6238018;23;19997;-69
2022/05/27 03:51:22;;;;;;;1.85;0.40;;;15.10;99.90;;;;;;6233548;23;20016;-69
2022/05/27 03:54:06;;;;;;;1.00;0.50;;;15.10;99.90;;;;;;6238007;23;20303;-69
2022/05/27 03:56:35;;;;;;;1.77;0.30;;;15.20;99.90;;;;;;6234501;23;20011;-69
2022/05/27 03:59:02;;;;;;;3.63;0.50;;;15.20;99.90;;;;;;6236428;23;20035;-69
2022/05/27 04:01:30;;;;;;;1.42;0.40;;;15.30;99.90;;;;;;6234382;23;20434;-69
2022/05/27 04:03:58;;;;;;;2.78;0.68;;;15.30;99.90;;;;;;6235987;23;20004;-69
2022/05/27 04:06:25;;;;;;;1.58;0.50;;;15.20;99.90;;;;;;6237124;23;20012;-69
2022/05/27 04:08:50;;;;;;;0.50;0.50;;;15.30;99.90;;;;;;6235841;23;20012;-69
2022/05/27 04:11:16;;;;;;;3.30;0.50;;;15.40;99.90;;;;;;6233303;23;20012;-69
2022/05/27 04:13:42;;;;;;;1.80;0.45;;;15.60;99.90;;;;;;6238862;23;20008;-69
2022/05/27 04:16:07;;;;;;;8.02;0.70;;;15.70;99.90;;;;;;6237374;23;20011;-69
2022/05/27 04:18:33;;;;;;;1.45;0.90;;;15.80;99.90;;;;;;6236127;23;20012;-69
2022/05/27 04:20:58;;;;;;;1.45;0.60;;;15.90;99.90;;;;;;6235686;23;20004;-69
2022/05/27 04:23:24;;;;;;;2.92;0.38;;;16.00;99.90;;;;;;6236223;23;20081;-69
2022/05/27 04:25:50;;;;;;;3.63;0.60;;;16.20;99.90;;;;;;6234642;23;20024;-69
2022/05/27 04:28:16;;;;;;;5.95;0.82;;;16.30;99.90;;;;;;6237368;23;20024;-69
2022/05/27 04:30:42;;;;;;;5.47;0.63;;;16.30;99.90;;;;;;6236476;23;20000;-69
2022/05/27 04:33:09;;;;;;;2.10;0.47;;;16.40;99.90;;;;;;6235729;23;20004;-69
2022/05/27 04:35:35;;;;;;;0.88;0.45;;;16.50;99.90;;;;;;6231032;23;20082;-70
2022/05/27 04:38:01;;;;;;;1.52;0.40;;;16.60;99.90;;;;;;6234834;23;20006;-69
2022/05/27 04:40:27;;;;;;;0.98;0.43;;;16.70;99.90;;;;;;6234668;23;20012;-70
2022/05/27 04:42:52;;;;;;;8.48;0.68;;;16.80;99.40;;;;;;6237958;23;20004;-71
2022/05/27 04:45:20;;;;;;;1.63;0.50;;;16.90;99.70;;;;;;6182657;23;20013;-70
2022/05/27 04:47:46;;;;;;;2.10;0.52;;;17.10;99.50;;;;;;6236801;23;20506;-72
2022/05/27 04:50:12;;;;;;;2.65;0.50;;;17.10;99.30;;;;;;6237360;23;20039;-69
2022/05/27 04:52:38;;;;;;;2.67;0.63;;;17.20;99.30;;;;;;6235149;23;20008;-69
2022/05/27 04:55:08;;;;;;;3.65;0.47;;;17.30;99.40;;;;;;6232077;23;20190;-69
2022/05/27 04:57:46;;;;;;;2.78;1.02;;;17.40;99.10;;;;;;6237278;23;20008;-70
2022/05/27 05:00:19;;;;;;;5.97;0.68;;;17.40;98.70;;;;;;6235085;23;20054;-71
2022/05/27 05:02:45;;;;;;;0.98;0.30;;;17.50;98.60;;;;;;6230305;23;20007;-71
2022/05/27 05:05:14;;;;;;;3.53;1.38;;;17.60;98.70;;;;;;6231970;23;20075;-71
2022/05/27 05:07:40;;;;;;;1.00;0.65;;;17.70;98.70;;;;;;6231831;23;20004;-70
2022/05/27 05:10:08;;;;;;;1.40;0.63;;;17.80;98.90;;;;;;6222993;23;20032;-70
2022/05/27 05:12:34;;;;;;;1.35;0.40;;;17.80;97.80;;;;;;6234375;23;20054;-69
2022/05/27 05:14:59;;;;;;;2.05;0.43;;;17.90;97.60;;;;;;6232257;23;20156;-70
2022/05/27 05:17:25;;;;;;;1.02;0.43;;;18.00;97.60;;;;;;6231527;23;20015;-70
2022/05/27 05:19:55;;;;;;;18.30;1.17;;;18.10;96.20;;;;;;6231585;23;20090;-69
2022/05/27 05:22:22;;;;;;;0.63;0.30;;;18.10;96.50;;;;;;6231223;23;20039;-70
2022/05/27 05:24:48;;;;;;;3.92;0.45;;;18.20;96.30;;;;;;6229932;23;20070;-71
2022/05/27 05:27:14;;;;;;;0.35;0.30;;;18.30;96.40;;;;;;6206036;23;20028;-71
2022/05/27 05:29:40;;;;;;;2.78;0.50;;;18.40;96.00;;;;;;6234271;23;20003;-73
2022/05/27 05:32:06;;;;;;;2.28;0.40;;;18.50;95.40;;;;;;6232212;23;20019;-73
2022/05/27 05:34:32;;;;;;;1.48;0.40;;;18.50;95.70;;;;;;6233702;23;20207;-71
2022/05/27 05:36:58;;;;;;;0.32;0.32;;;18.60;95.90;;;;;;6232532;23;20008;-70
2022/05/27 05:39:24;;;;;;;0.88;0.43;;;18.60;95.60;;;;;;6235863;23;20083;-70
2022/05/27 05:41:59;;;;;;;0.75;0.40;;;18.70;95.70;;;;;;6235406;23;19996;-70
2022/05/27 05:44:26;;;;;;;0.40;0.30;;;18.70;95.40;;;;;;6234112;23;20008;-69
2022/05/27 05:46:52;;;;;;;3.72;0.30;;;18.80;95.10;;;;;;6235069;23;20043;-75
2022/05/27 05:49:18;;;;;;;1.77;0.50;;;18.90;95.00;;;;;;6234964;23;20446;-75
2022/05/27 05:51:44;;;;;;;0.60;0.30;;;19.10;95.50;;;;;;6238530;23;20008;-74
2022/05/27 05:54:09;;;;;;;1.70;0.70;;;19.20;94.90;;;;;;6237021;23;20036;-75
2022/05/27 05:56:35;;;;;;;1.85;0.38;;;19.20;94.10;;;;;;6236597;23;20015;-74
2022/05/27 05:59:01;;;;;;;1.20;0.43;;;19.30;94.10;;;;;;6237272;23;20004;-74
2022/05/27 06:01:27;;;;;;;2.05;0.60;;;19.30;94.70;;;;;;6210061;23;20031;-74
2022/05/27 06:03:53;;;;;;;0.20;0.20;;;19.30;93.30;;;;;;6237026;23;20055;-75
2022/05/27 06:06:18;;;;;;;0.43;0.40;;;19.30;92.30;;;;;;6238311;23;20036;-76
2022/05/27 06:08:44;;;;;;;0.68;0.30;;;19.40;93.10;;;;;;6236041;23;20314;-75
2022/05/27 06:11:10;;;;;;;2.30;0.30;;;19.60;92.10;;;;;;6238570;23;20097;-76
2022/05/27 06:13:37;;;;;;;0.98;0.50;;;19.70;92.10;;;;;;6237808;23;20015;-74
2022/05/27 06:16:04;;;;;;;1.63;0.40;;;19.80;92.00;;;;;;6236350;23;20005;-74
2022/05/27 06:18:30;;;;;;;2.15;0.30;;;19.80;90.90;;;;;;6236548;23;20030;-75
2022/05/27 06:20:55;;;;;;;0.65;0.32;;;19.90;90.20;;;;;;6238024;23;20020;-76
2022/05/27 06:23:22;;;;;;;3.17;0.40;;;20.00;91.20;;;;;;6237629;23;20422;-75
2022/05/27 06:26:00;;;;;;;2.30;0.50;;;20.00;90.10;;;;;;6237720;23;20128;-74
2022/05/27 06:36:41;;;;;;;1.80;0.40;;;20.50;86.70;;;;;;6235593;23;20062;-74
2022/05/27 06:39:07;;;;;;;1.67;0.35;;;20.40;87.90;;;;;;6238614;23;20105;-75
2022/05/27 06:41:34;;;;;;;1.92;0.40;;;20.40;88.70;;;;;;6235250;23;20016;-76
2022/05/27 06:43:59;;;;;;;0.47;0.22;;;20.50;89.80;;;;;;6237402;23;20058;-75
2022/05/27 06:46:25;;;;;;;0.35;0.20;;;20.60;89.80;;;;;;6237497;23;20020;-76
2022/05/27 06:48:51;;;;;;;0.60;0.40;;;20.80;90.00;;;;;;6237125;23;20083;-76
2022/05/27 06:51:20;;;;;;;0.43;0.32;;;20.90;88.70;;;;;;6236230;23;20767;-76
2022/05/27 06:53:46;;;;;;;0.93;0.40;;;21.00;86.60;;;;;;6211170;23;20008;-75
2022/05/27 06:56:12;;;;;;;1.02;0.40;;;20.90;84.20;;;;;;6236759;23;20008;-76
2022/05/27 06:58:38;;;;;;;1.60;0.25;;;20.90;85.90;;;;;;6237403;23;20032;-76
2022/05/27 07:01:04;;;;;;;0.30;0.25;;;20.90;84.30;;;;;;6235910;23;20058;-74
2022/05/27 07:03:30;;;;;;;1.02;0.50;;;20.90;87.10;;;;;;6238238;23;20287;-68
2022/05/27 07:05:55;;;;;;;0.73;0.40;;;20.70;85.30;;;;;;6234043;23;20488;-67
2022/05/27 07:08:21;;;;;;;0.90;0.30;;;20.70;85.40;;;;;;6237707;23;20008;-67
2022/05/27 07:10:47;;;;;;;3.45;0.38;;;20.60;84.70;;;;;;6211622;23;20084;-67
2022/05/27 07:13:13;;;;;;;0.93;0.30;;;20.60;88.00;;;;;;6237895;23;20031;-67
2022/05/27 07:15:40;;;;;;;2.22;0.38;;;20.60;85.90;;;;;;6224331;23;20008;-67
2022/05/27 07:18:08;;;;;;;2.10;0.50;;;20.70;88.10;;;;;;6238318;23;20011;-67
2022/05/27 07:20:36;;;;;;;2.95;0.30;;;20.80;89.00;;;;;;6230162;23;20004;-68
2022/05/27 07:23:05;;;;;;;5.13;0.60;;;20.80;88.00;;;;;;6230564;23;20042;-68
2022/05/27 07:25:35;;;;;;;1.05;0.40;;;20.90;87.70;;;;;;6236493;23;20034;-68
2022/05/27 07:28:07;;;;;;;0.73;0.28;;;20.90;86.90;;;;;;6237789;23;20008;-67
2022/05/27 07:30:34;;;;;;;3.30;0.40;;;20.90;87.50;;;;;;6230566;23;20008;-67
2022/05/27 07:33:00;;;;;;;0.95;0.40;;;20.90;86.30;;;;;;6235562;23;20008;-67
2022/05/27 07:35:26;;;;;;;0.57;0.40;;;21.00;87.20;;;;;;6235110;23;20259;-66
2022/05/27 07:37:52;;;;;;;1.63;0.52;;;21.00;86.60;;;;;;6238300;23;20008;-68
2022/05/27 07:40:18;;;;;;;2.83;0.75;;;21.10;87.00;;;;;;6237028;23;20119;-68
2022/05/27 07:42:43;;;;;;;0.90;0.47;;;21.20;85.70;;;;;;6233766;23;20493;-68
2022/05/27 07:45:12;;;;;;;0.90;0.40;;;21.20;85.20;;;;;;6234666;23;20024;-68
2022/05/27 07:47:38;;;;;;;3.95;0.50;;;21.20;86.70;;;;;;6234363;22;20103;-67
2022/05/27 07:50:05;;;;;;;1.67;0.45;;;21.20;88.30;;;;;;6234024;23;20031;-69
2022/05/27 07:52:34;;;;;;;1.02;0.40;;;21.30;86.50;;;;;;6237824;23;20004;-67
2022/05/27 07:55:04;;;;;;;1.80;0.30;;;21.40;84.80;;;;;;6239788;23;20004;-66
2022/05/27 07:57:29;;;;;;;3.45;0.65;;;21.40;84.40;;;;;;6238304;23;20012;-67
2022/05/27 07:59:55;;;;;;;1.55;0.50;;;21.40;83.90;;;;;;6232955;23;20008;-73
2022/05/27 08:02:24;;;;;;;1.00;0.50;;;21.30;83.50;;;;;;6234954;23;20000;-71
2022/05/27 08:04:52;;;;;;;1.52;0.28;;;21.20;87.90;;;;;;6237498;23;20016;-73
2022/05/27 08:07:17;;;;;;;5.68;0.75;;;21.30;87.60;;;;;;6233719;23;20480;-69
2022/05/27 08:09:43;;;;;;;0.98;0.68;;;21.40;85.30;;;;;;6234500;23;20192;-68
2022/05/27 08:12:10;;;;;;;3.85;0.68;;;21.30;82.40;;;;;;6234403;23;20015;-67
2022/05/27 08:14:36;;;;;;;1.23;0.50;;;21.30;86.30;;;;;;6237763;23;20057;-69
2022/05/27 08:17:02;;;;;;;1.27;0.40;;;21.30;87.60;;;;;;6236814;23;20084;-69
2022/05/27 08:19:28;;;;;;;0.52;0.40;;;21.50;89.70;;;;;;6235728;23;20030;-67
2022/05/27 08:21:54;;;;;;;2.92;0.50;;;21.70;86.00;;;;;;6235695;23;20012;-69
2022/05/27 08:24:19;;;;;;;2.53;0.50;;;21.90;86.50;;;;;;6233562;23;20004;-70
2022/05/27 08:26:47;;;;;;;0.60;0.55;;;21.90;84.30;;;;;;6208393;23;20024;-69
2022/05/27 08:29:13;;;;;;;0.60;0.40;;;22.00;85.40;;;;;;6237923;23;20030;-69
2022/05/27 08:31:39;;;;;;;0.90;0.47;;;22.00;81.60;;;;;;6236486;23;20023;-69
2022/05/27 08:39:40;;;;;;;0.75;0.30;;;21.80;82.00;;;;;;6238826;23;20074;-71
2022/05/27 08:42:35;;;;;;;1.10;0.70;;;21.90;83.50;;;;;;6236357;23;20135;-72
2022/05/27 08:45:26;;;;;;;1.75;0.35;;;21.90;85.20;;;;;;6237827;23;20000;-72
2022/05/27 08:47:59;;;;;;;3.42;0.55;;;22.20;86.10;;;;;;6238195;23;20381;-70
2022/05/27 08:50:25;;;;;;;0.88;0.38;;;22.40;81.60;;;;;;6236258;23;20004;-73
2022/05/27 08:53:13;;;;;;;1.10;0.45;;;22.30;79.80;;;;;;6236797;23;20448;-70
2022/05/27 09:01:31;;;;;;;1.35;0.32;;;22.30;82.10;;;;;;6237395;23;20087;-68
2022/05/27 09:04:25;;;;;;;1.42;0.20;;;22.50;81.90;;;;;;6236023;23;20656;-68
2022/05/27 09:07:23;;;;;;;4.57;0.50;;;22.40;79.00;;;;;;6233763;23;20016;-68
2022/05/27 09:09:50;;;;;;;3.20;0.57;;;22.40;82.90;;;;;;6236272;23;20434;-69
2022/05/27 09:12:40;;;;;;;2.38;0.40;;;22.40;81.60;;;;;;6233378;23;20468;-69
2022/05/27 09:15:32;;;;;;;0.52;0.30;;;22.30;81.10;;;;;;6234137;23;20015;-69
2022/05/27 09:18:17;;;;;;;1.13;0.20;;;22.40;80.90;;;;;;6235361;23;20016;-68
2022/05/27 09:21:05;;;;;;;3.30;0.70;;;22.50;81.00;;;;;;6236051;23;20393;-68
2022/05/27 09:23:37;;;;;;;1.38;0.57;;;22.50;78.60;;;;;;6196427;23;20065;-68
2022/05/27 09:26:24;;;;;;;2.15;0.60;;;22.50;82.20;;;;;;6236074;23;20012;-69
2022/05/27 09:29:04;;;;;;;4.68;1.15;;;22.60;82.70;;;;;;6236927;23;20027;-68
2022/05/27 09:31:37;;;;;;;7.93;2.85;;;22.70;81.70;;;;;;6232229;23;20015;-68
2022/05/27 09:34:03;;;;;;;1.98;0.90;;;22.70;80.90;;;;;;6235497;23;20008;-68
2022/05/27 09:36:37;;;;;;;1.00;0.70;;;22.70;78.20;;;;;;6232679;23;20008;-69
2022/05/27 09:39:10;;;;;;;2.90;1.00;;;22.60;81.70;;;;;;6238379;23;20139;-68
2022/05/27 09:41:43;;;;;;;0.88;0.40;;;22.70;80.10;;;;;;6232782;23;20569;-69
2022/05/27 09:44:24;;;;;;;2.92;0.90;;;22.60;79.90;;;;;;6234179;23;20004;-71
2022/05/27 09:46:50;;;;;;;4.53;1.10;;;22.70;77.50;;;;;;6229141;23;20422;-70
2022/05/27 09:49:16;;;;;;;1.15;0.45;;;22.60;78.10;;;;;;6235861;23;20032;-69
2022/05/27 09:51:42;;;;;;;6.32;1.90;;;22.60;78.20;;;;;;6238884;23;20078;-70
2022/05/27 09:54:44;;;;;;;0.30;0.28;;;22.60;78.70;;;;;;6235823;23;20422;-71
2022/05/27 09:57:10;;;;;;;1.42;0.68;;;22.70;81.00;;;;;;6236650;23;20297;-70
2022/05/27 09:59:41;;;;;;;2.42;0.60;;;23.00;79.60;;;;;;6233684;23;20008;-69
2022/05/27 10:02:35;;;;;;;2.30;0.55;;;23.00;74.90;;;;;;6233431;23;20086;-69
2022/05/27 10:05:12;;;;;;;3.78;0.70;;;22.80;75.70;;;;;;6236180;23;20010;-67
2022/05/27 10:07:49;;;;;;;2.67;0.40;;;22.70;73.60;;;;;;6234223;23;20078;-73
2022/05/27 10:10:15;;;;;;;1.90;0.55;;;22.70;76.90;;;;;;6234931;23;19996;-69
2022/05/27 10:12:40;;;;;;;1.20;0.40;;;22.80;75.80;;;;;;6236384;23;20004;-68
2022/05/27 10:15:06;;;;;;;1.95;0.65;;;22.90;79.00;;;;;;6235379;23;20012;-69
2022/05/27 10:17:37;;;;;;;1.42;0.30;;;23.00;76.00;;;;;;6236929;23;20004;-67
2022/05/27 10:20:31;;;;;;;2.97;0.60;;;22.90;75.30;;;;;;6234863;23;20063;-68
2022/05/27 10:23:10;;;;;;;1.42;0.50;;;23.00;78.60;;;;;;6228705;23;20083;-68
2022/05/27 10:25:42;;;;;;;1.10;0.45;;;23.20;76.20;;;;;;6228834;23;20097;-68
2022/05/27 10:28:10;;;;;;;0.85;0.30;;;23.20;78.20;;;;;;6236073;23;20008;-70
2022/05/27 10:30:55;;;;;;;3.15;0.57;;;23.20;77.90;;;;;;6235899;23;19997;-68
2022/05/27 10:33:23;;;;;;;2.22;0.50;;;23.30;76.60;;;;;;6226888;23;20434;-67
2022/05/27 10:35:51;;;;;;;2.38;0.35;;;23.30;76.80;;;;;;6234571;23;20425;-72
2022/05/27 10:38:42;;;;;;;2.92;0.60;;;23.20;75.60;;;;;;6231844;23;20015;-73
2022/05/27 10:41:31;;;;;;;2.05;0.47;;;23.20;74.10;;;;;;6229135;23;20004;-70
2022/05/27 10:44:13;;;;;;;2.70;0.52;;;23.30;75.90;;;;;;6234646;23;20122;-72
2022/05/27 10:46:47;;;;;;;0.77;0.40;;;23.60;77.10;;;;;;6239830;23;20406;-73
2022/05/27 10:49:33;;;;;;;0.45;0.28;;;23.70;74.10;;;;;;6235747;23;20178;-67
2022/05/27 10:52:20;;;;;;;0.40;0.30;;;23.80;72.00;;;;;;6236151;23;20000;-66
2022/05/27 10:55:37;;;;;;;3.15;0.75;;;23.80;74.10;;;;;;6234089;23;20096;-67
2022/05/27 11:04:30;;;;;;;1.45;0.60;;;23.50;73.40;;;;;;6237696;23;20247;-68
2022/05/27 11:07:13;;;;;;;2.05;0.50;;;23.60;72.70;;;;;;6235576;23;20016;-68
2022/05/27 11:09:51;;;;;;;1.13;0.40;;;23.50;76.50;;;;;;6225870;23;20011;-69
2022/05/27 11:15:10;;;;;;;1.30;0.50;;;23.50;73.50;;;;;;6233051;23;20004;-70
2022/05/27 11:15:40;;;;;;;2.80;0.30;;;23.60;73.80;;;;;;6230156;23;20008;-68
2022/05/27 11:18:42;;;;;;;4.35;0.50;;;23.60;72.30;;;;;;6230037;23;20018;-68
2022/05/27 11:21:14;;;;;;;0.85;0.40;;;23.80;75.30;;;;;;6237109;23;20126;-71
2022/05/27 11:24:04;;;;;;;1.75;0.38;;;23.90;73.10;;;;;;6234215;23;20010;-69
2022/05/27 11:26:58;;;;;;;0.50;0.40;;;23.90;74.50;;;;;;6234759;23;20020;-67
2022/05/27 11:29:24;;;;;;;0.77;0.60;;;23.90;72.10;;;;;;6235559;23;20004;-69
2022/05/27 11:31:58;;;;;;;2.25;0.50;;;24.00;75.70;;;;;;6238679;23;20491;-69
2022/05/27 11:34:31;;;;;;;2.45;0.57;;;24.20;74.90;;;;;;6232384;23;20008;-66
2022/05/27 11:37:12;;;;;;;1.63;0.50;;;24.30;73.70;;;;;;6234357;23;20422;-68
2022/05/27 11:39:47;;;;;;;0.28;0.20;;;24.40;74.00;;;;;;6232842;23;20008;-68
2022/05/27 11:42:34;;;;;;;2.92;0.70;;;24.40;72.00;;;;;;6235768;23;20055;-69
2022/05/27 11:45:21;;;;;;;2.13;0.60;;;24.30;75.20;;;;;;6236222;23;20434;-68
2022/05/27 11:48:02;;;;;;;0.63;0.40;;;24.40;76.00;;;;;;6237086;23;20012;-68
2022/05/27 11:50:47;;;;;;;3.72;0.43;;;24.40;72.10;;;;;;6236610;23;20034;-70
2022/05/27 11:53:13;;;;;;;9.65;0.63;;;24.30;71.60;;;;;;6235345;23;20004;-67
2022/05/27 11:56:17;;;;;;;5.40;0.70;;;24.30;72.10;;;;;;6205677;23;20086;-69
2022/05/27 11:59:19;;;;;;;1.85;0.30;;;24.30;72.40;;;;;;6232204;23;20079;-71
2022/05/27 12:01:50;;;;;;;0.77;0.20;;;24.20;72.20;;;;;;6227500;23;20004;-71
2022/05/27 12:04:41;;;;;;;0.82;0.40;;;24.30;74.30;;;;;;6229896;23;20023;-69
2022/05/27 12:07:34;;;;;;;1.98;0.40;;;24.40;73.20;;;;;;6236864;23;20016;-68
2022/05/27 12:10:11;;;;;;;2.20;0.40;;;24.50;69.70;;;;;;6234369;23;20010;-72
2022/05/27 12:12:47;;;;;;;3.00;0.63;;;24.40;70.80;;;;;;6232505;23;20066;-69
2022/05/27 12:15:29;;;;;;;4.43;0.50;;;24.50;71.40;;;;;;6229871;22;20000;-69
2022/05/27 12:17:57;;;;;;;0.88;0.20;;;24.60;75.60;;;;;;6234128;23;19997;-69
2022/05/27 12:20:32;;;;;;;1.65;0.43;;;24.80;74.20;;;;;;6237843;23;20024;-69
2022/05/27 12:23:04;;;;;;;0.88;0.50;;;24.90;74.80;;;;;;6227784;23;20738;-71
2022/05/27 12:25:34;;;;;;;0.90;0.40;;;25.00;74.50;;;;;;6231037;23;20007;-70
2022/05/27 12:28:02;;;;;;;3.17;0.50;;;24.90;73.90;;;;;;6236557;23;20397;-70
2022/05/27 12:30:40;;;;;;;2.70;0.47;;;24.80;71.80;;;;;;6234128;23;20005;-69
2022/05/27 12:33:11;;;;;;;3.92;0.60;;;24.90;72.30;;;;;;6227300;23;20087;-69
2022/05/27 12:35:37;;;;;;;2.43;0.30;;;24.80;71.90;;;;;;6224706;23;20001;-71
2022/05/27 12:38:26;;;;;;;1.40;0.40;;;24.60;70.20;;;;;;6223195;23;20091;-69
2022/05/27 12:41:01;;;;;;;1.33;0.32;;;24.60;74.30;;;;;;6223218;23;20022;-73
2022/05/27 12:43:30;;;;;;;0.28;0.28;;;24.70;72.40;;;;;;6230819;23;20008;-71
2022/05/27 12:46:25;;;;;;;1.90;0.55;;;24.70;71.40;;;;;;6233986;23;20004;-69
2022/05/27 12:48:50;;;;;;;0.77;0.50;;;24.60;70.80;;;;;;6221123;23;20441;-70
2022/05/27 12:51:16;;;;;;;1.30;0.50;;;24.40;71.90;;;;;;6234493;23;20014;-69
2022/05/27 12:53:48;;;;;;;2.75;0.60;;;24.20;73.80;;;;;;6234619;23;20004;-69
2022/05/27 13:02:32;;;;;;;1.13;0.50;;;24.50;75.40;;;;;;6231026;23;20092;-69
2022/05/27 13:05:04;;;;;;;3.58;0.30;;;24.50;75.10;;;;;;6234869;23;20376;-69
2022/05/27 13:07:33;;;;;;;1.75;0.73;;;24.60;75.60;;;;;;6232073;23;20100;-68
2022/05/27 13:10:16;;;;;;;1.85;0.60;;;24.80;74.60;;;;;;6229405;23;20039;-72
2022/05/27 13:12:42;;;;;;;0.68;0.60;;;24.80;70.90;;;;;;6228083;23;20014;-71
2022/05/27 13:15:33;;;;;;;1.52;0.32;;;24.80;73.50;;;;;;6232569;23;20100;-70
2022/05/27 13:17:59;;;;;;;0.60;0.20;;;24.80;74.10;;;;;;6213359;23;20012;-70
2022/05/27 13:20:38;;;;;;;1.65;0.60;;;24.80;74.80;;;;;;6228481;23;20083;-69
2022/05/27 13:23:15;;;;;;;3.17;0.50;;;24.70;74.60;;;;;;6222943;23;20000;-69
2022/05/27 13:26:01;;;;;;;0.52;0.40;;;24.80;75.60;;;;;;6224435;23;20026;-71
2022/05/27 13:28:39;;;;;;;0.50;0.50;;;25.00;75.50;;;;;;6228733;23;20054;-70
2022/05/27 13:31:11;;;;;;;8.35;0.70;;;25.10;76.70;;;;;;6231523;23;20004;-69
2022/05/27 13:33:39;;;;;;;;;;;25.00;76.80;;;;;;6232947;23;20103;-69
2022/05/27 13:36:18;;;;;;;2.42;0.57;;;24.90;74.30;;;;;;6236495;23;19900;-68
2022/05/27 13:39:13;;;;;;;0.82;0.45;;;24.80;76.10;;;;;;6235073;23;20008;-69
2022/05/27 13:41:41;;;;;;;3.35;0.50;;;24.90;73.10;;;;;;6227993;23;20085;-69
2022/05/27 13:44:11;;;;;;;2.50;0.70;;;25.10;74.70;;;;;;6228825;23;20536;-69
2022/05/27 13:46:41;;;;;;;0.77;0.60;;;25.20;74.20;;;;;;6234835;23;20024;-69
2022/05/27 13:49:25;;;;;;;0.75;0.55;;;25.10;72.50;;;;;;6233954;23;20008;-69
2022/05/27 13:51:51;;;;;;;1.40;0.50;;;25.00;73.80;;;;;;6228776;23;20058;-70
2022/05/27 13:54:19;;;;;;;1.42;0.60;;;24.90;72.00;;;;;;6236795;23;20009;-70
2022/05/27 13:56:53;;;;;;;6.13;0.50;;;24.80;73.10;;;;;;6233987;23;20395;-70